WetterOnline ( https://www.wetteronline.de )

Wetter aktuell Bellavista

Aktuelles Wetter: Capo Bellavista (150m)

6-stündlich | Neueste Meldungen
Ortszeit Temperatur Wetter
Sa, 05.12. 19:00 11.8° C leichter Regen
Sa, 05.12. 13:00 17.0° C wolkig
Sa, 05.12. 7:00 14.0° C bewölkt
Sa, 05.12. 1:00 14.0° C bedeckt
Fr, 04.12. 19:00 15.2° C wolkig
Fr, 04.12. 13:00 14.6° C wolkig
Fr, 04.12. 7:00 9.0° C leicht bewölkt
Fr, 04.12. 1:00 8.8° C wolkenlos
Ortszeit Temperatur Wetter
Sa, 05.12. 22:00 11.0° C bedeckt
Sa, 05.12. 21:55 11° C bedeckt
Sa, 05.12. 21:00 11.6° C bewölkt
Sa, 05.12. 20:55 12° C bewölkt
Sa, 05.12. 20:00 11.8° C leichter Regen
Sa, 05.12. 19:55 12° C leichter Regen
Sa, 05.12. 19:00 11.8° C leichter Regen
Sa, 05.12. 18:55 12° C leichter Regen
Sa, 05.12. 18:00 11.6° C leichter Regen
Ortszeit Relative Feuchte Sichtweite
Sa, 05.12. 19:00 72% 20 km
Sa, 05.12. 13:00 71% 16 km
Sa, 05.12. 7:00 80% 16 km
Sa, 05.12. 1:00 71% 14 km
Fr, 04.12. 19:00 76% 10 km
Fr, 04.12. 13:00 59% 20 km
Fr, 04.12. 7:00 75% 10 km
Fr, 04.12. 1:00 54% 10 km
Ortszeit Relative Feuchte Sichtweite
Sa, 05.12. 22:00 78% 20 km
Sa, 05.12. 21:55 76% >10 km
Sa, 05.12. 21:00 76% 20 km
Sa, 05.12. 20:55 77% >10 km
Sa, 05.12. 20:00 77% 20 km
Sa, 05.12. 19:55 77% >10 km
Sa, 05.12. 19:00 72% 20 km
Sa, 05.12. 18:55 71% >10 km
Sa, 05.12. 18:00 82% 10 km
Ortszeit Niederschlagsmenge Niederschlagsart
Sa, 05.12. 19:00 1 l/m2 in 12 Std. Regen
Sa, 05.12. 13:00 1 l/m2 in 6 Std. -
Sa, 05.12. 7:00 1 l/m2 in 12 Std. Regen
Sa, 05.12. 1:00 0.0 l/m2 in 6 Std. Regen
Fr, 04.12. 19:00 0.0 l/m2 in 12 Std. Sprühregen
Fr, 04.12. 13:00 0.0 l/m2 in 6 Std. -
Fr, 04.12. 7:00 0.0 l/m2 in 12 Std. -
Fr, 04.12. 1:00 0.0 l/m2 in 6 Std. -
Ortszeit Niederschlagsmenge Niederschlagsart
Sa, 05.12. 22:00 keine Meldung -
Sa, 05.12. 21:55 keine Meldung -
Sa, 05.12. 21:00 keine Meldung -
Sa, 05.12. 20:55 keine Meldung -
Sa, 05.12. 20:00 keine Meldung -
Sa, 05.12. 19:55 keine Meldung -
Sa, 05.12. 19:00 keine Meldung -
Sa, 05.12. 18:55 keine Meldung -
Sa, 05.12. 18:00 keine Meldung -
Ortszeit Stärke Spitze Richtung
km/h Bft. km/h Grad Sektor
Sa, 05.12. 19:00 26 4 - 250° W
Sa, 05.12. 13:00 54 7 - 350° N
Sa, 05.12. 7:00 26 4 - 220° SW
Sa, 05.12. 1:00 33 5 - 240° SW
Fr, 04.12. 19:00 30 5 - 230° SW
Fr, 04.12. 13:00 39 6 - 210° SW
Fr, 04.12. 7:00 4 1 - 290° W
Fr, 04.12. 1:00 6 1 - 10° N
Ortszeit Stärke Spitze Richtung
km/h Bft. km/h Grad Sektor
Sa, 05.12. 22:00 9 2 - 220° SW
Sa, 05.12. 21:55 9 2 - 220° SW
Sa, 05.12. 21:00 28 4 - 230° SW
Sa, 05.12. 20:55 28 4 - 230° SW
Sa, 05.12. 20:00 31 5 - 230° SW
Sa, 05.12. 19:55 31 5 - 230° SW
Sa, 05.12. 19:00 26 4 - 250° W
Sa, 05.12. 18:55 26 4 - 250° W
Sa, 05.12. 18:00 43 6 - 240° SW
Ortszeit Untergrenze Bedeckung Gattung
total tief tief mittel hoch
Sa, 05.12. 19:00 900 m 8/8 5/8 Cu Ns -
Sa, 05.12. 13:00 600 m 6/8 5/8 Cu Ns -
Sa, 05.12. 7:00 1500 m 7/8 7/8 Cu - -
Sa, 05.12. 1:00 750 m 8/8 8/8 Cu - -
Fr, 04.12. 19:00 750 m 7/8 4/8 Cu As -
Fr, 04.12. 13:00 1050 m 7/8 3/8 Cu As Ci
Fr, 04.12. 7:00 1200 m 6/8 1/8 Cu As -
Fr, 04.12. 1:00 - 0/8 0/8 - - -
Ortszeit Bedeckungsgrad in Achtel und Wolkenuntergrenze
Sa, 05.12. 22:00 8(1200m)
Sa, 05.12. 21:55 8(1200m)
Sa, 05.12. 21:00 5(900m) 5(2100m)
Sa, 05.12. 20:55 5-7(900m)
Sa, 05.12. 20:00 5(900m) 5(2400m)
Sa, 05.12. 19:55 5-7(900m)
Sa, 05.12. 19:00 5(900m) 5(2100m)
Sa, 05.12. 18:55 5-7(900m)
Sa, 05.12. 18:00 5(900m) 5(2400m)
Ortszeit Luftdruck NN (hPa) Tendenz (hPa in 3 Std.)
Sa, 05.12. 19:00 999 + 2,1
Sa, 05.12. 13:00 996 - 0,1
Sa, 05.12. 7:00 997 - 0,7
Sa, 05.12. 1:00 998 - 0,6
Fr, 04.12. 19:00 999 - 1,1
Fr, 04.12. 13:00 1000 - 1,9
Fr, 04.12. 7:00 1006 + 0,2
Fr, 04.12. 1:00 1006 - 0,2
Ortszeit Luftdruck NN (hPa) Tendenz (hPa in 3 Std.)
Sa, 05.12. 22:00 1000 + 1,6
Sa, 05.12. 21:55 1000 keine Meldung
Sa, 05.12. 21:00 1000 + 2,3
Sa, 05.12. 20:55 1000 keine Meldung
Sa, 05.12. 20:00 1000 + 2,2
Sa, 05.12. 19:55 999 keine Meldung
Sa, 05.12. 19:00 999 + 2,1
Sa, 05.12. 18:55 998 keine Meldung
Sa, 05.12. 18:00 998 + 1,2
Ortszeit Schneehöhe (cm)
Sa, 05.12. 19:00 -
Sa, 05.12. 13:00 -
Sa, 05.12. 7:00 0
Sa, 05.12. 1:00 -
Fr, 04.12. 19:00 -
Fr, 04.12. 13:00 -
Fr, 04.12. 7:00 -
Fr, 04.12. 1:00 -
Ortszeit Schneehöhe (cm)
Sa, 05.12. 22:00 -
Sa, 05.12. 21:55 -
Sa, 05.12. 21:00 -
Sa, 05.12. 20:55 -
Sa, 05.12. 20:00 -
Sa, 05.12. 19:55 -
Sa, 05.12. 19:00 -
Sa, 05.12. 18:55 -
Sa, 05.12. 18:00 -
Link zu dieser Seite / Seite empfehlen

Das Wetter in ...